Floresta da Tijuca, Brazil
Current Conditions -  °F | °C
As of 2:00 PM on Saturday 25 Oct 2014 (Local Time) from SBRJ Reporting Station
Scattered Clouds Scattered Clouds  
Wind Chill: 73°   Ceiling: Unl
Heat Index: 73°   Visibility: 6mi
Dew Point: 66°   Wind: 12mph
Humidity: 78%   Direction: 150°SSE
Pressure: 29.88"   Gusts: NA
Location:  22.9°S, 43.21°W
Report Text: SBRJ 251600Z 15010KT 9999 FEW020 SCT100 23/19 Q1012
Loading
Personal Weather Stations






























Interactive Weather Map
Tropical Storm Tracking
New forecast layout! Learn more

10-Day Weather Forecast

Advertisements
Track Severe Weather on mobile